Time;durP1;ratioP1;P1;durP2;ratioP2;P2;SDS_P1;SDS_P2;PMS_P1;PMS_P2;Temp;Humidity;BMP_temperature;BMP_pressure;BME280_temperature;BME280_humidity;BME280_pressure;Samples;Min_cycle;Max_cycle;Signal;HPM_P1;HPM_P2
2023/12/13 00:00:25;;;;;;;8.8;5.3;;;;;;;5.65;100;924.9208;;;;
2023/12/13 00:02:50;;;;;;;6.2;4.6;;;;;;;5.54;100;924.9293;;;;
2023/12/13 00:05:16;;;;;;;7.4;5;;;;;;;5.55;100;924.9263;;;;
2023/12/13 00:07:44;;;;;;;8.7;5.5;;;;;;;5.49;100;924.9211;;;;
2023/12/13 00:10:11;;;;;;;8.1;5.1;;;;;;;5.6;100;924.8199;;;;
2023/12/13 00:12:44;;;;;;;4.9;3.7;;;;;;;5.67;100;924.8278;;;;
2023/12/13 00:15:16;;;;;;;4.9;3.5;;;;;;;5.67;100;924.7725;;;;
2023/12/13 00:17:45;;;;;;;5.7;3.9;;;;;;;5.67;100;924.5726;;;;
2023/12/13 00:20:10;;;;;;;4.6;3.6;;;;;;;5.65;100;924.7266;;;;
2023/12/13 00:23:03;;;;;;;7;4.6;;;;;;;5.65;100;924.6682;;;;
2023/12/13 00:25:32;;;;;;;5.6;4.3;;;;;;;5.57;100;924.7258;;;;
2023/12/13 00:28:03;;;;;;;7.1;4.1;;;;;;;5.52;100;924.6939;;;;
2023/12/13 00:30:32;;;;;;;5.6;3.7;;;;;;;5.57;100;924.7369;;;;
2023/12/13 00:32:57;;;;;;;5.3;3.6;;;;;;;5.66;100;924.894;;;;
2023/12/13 00:35:23;;;;;;;5.8;3.3;;;;;;;5.66;100;925.0591;;;;
2023/12/13 00:38:03;;;;;;;5.1;3.6;;;;;;;5.62;100;925.0706;;;;
2023/12/13 00:40:48;;;;;;;5;3.4;;;;;;;5.66;100;925.0891;;;;
2023/12/13 00:43:32;;;;;;;4.5;3.5;;;;;;;5.68;100;925.0316;;;;
2023/12/13 00:46:13;;;;;;;4.5;3.1;;;;;;;5.67;100;924.8854;;;;
2023/12/13 00:48:42;;;;;;;5.4;3.2;;;;;;;5.67;100;925.0757;;;;
2023/12/13 00:51:07;;;;;;;5.1;3.1;;;;;;;5.63;100;925.0424;;;;
2023/12/13 00:53:31;;;;;;;6.6;3.6;;;;;;;5.61;100;925.028;;;;
2023/12/13 00:55:57;;;;;;;4.4;3.3;;;;;;;5.63;100;925.1213;;;;
2023/12/13 00:58:27;;;;;;;4.1;2.8;;;;;;;5.68;100;924.9959;;;;
2023/12/13 01:01:06;;;;;;;3.2;2.4;;;;;;;5.71;100;924.8225;;;;
2023/12/13 01:03:31;;;;;;;2.4;2;;;;;;;5.75;100;924.7737;;;;
2023/12/13 01:06:02;;;;;;;4.6;3.1;;;;;;;5.68;100;924.8325;;;;
2023/12/13 01:08:27;;;;;;;5.5;3.9;;;;;;;5.61;100;924.8772;;;;
2023/12/13 01:10:57;;;;;;;5.8;3.9;;;;;;;5.62;100;924.9364;;;;
2023/12/13 01:13:22;;;;;;;5.8;3.9;;;;;;;5.56;100;924.7344;;;;
2023/12/13 01:15:49;;;;;;;6.3;4.4;;;;;;;5.64;100;924.717;;;;
2023/12/13 01:18:14;;;;;;;5.9;4.2;;;;;;;5.68;100;924.8823;;;;
2023/12/13 01:20:42;;;;;;;6;3.7;;;;;;;5.75;100;924.9411;;;;
2023/12/13 01:23:07;;;;;;;4.1;3.2;;;;;;;5.7;100;924.9092;;;;
2023/12/13 01:25:34;;;;;;;3.1;2.6;;;;;;;5.72;100;924.9267;;;;
2023/12/13 01:28:00;;;;;;;2.3;1.6;;;;;;;5.84;100;924.9672;;;;
2023/12/13 01:30:28;;;;;;;1.4;1.3;;;;;;;5.87;100;925.0984;;;;
2023/12/13 01:32:53;;;;;;;2.5;1.3;;;;;;;5.87;100;925.1617;;;;
2023/12/13 01:35:24;;;;;;;2.5;1.6;;;;;;;5.89;100;925.1886;;;;
2023/12/13 01:37:55;;;;;;;1.7;1.6;;;;;;;5.92;100;924.9656;;;;
2023/12/13 01:40:24;;;;;;;1.9;1.6;;;;;;;5.87;100;925.0873;;;;
2023/12/13 01:42:51;;;;;;;2.2;1.5;;;;;;;5.79;100;925.1956;;;;
2023/12/13 01:45:18;;;;;;;3.2;1.5;;;;;;;5.73;100;925.1282;;;;
2023/12/13 01:47:48;;;;;;;1.7;1.6;;;;;;;5.74;100;925.1227;;;;
2023/12/13 01:50:12;;;;;;;2.6;1.7;;;;;;;5.77;100;925.1135;;;;
2023/12/13 01:52:40;;;;;;;2.6;1.9;;;;;;;5.78;100;925.1649;;;;
2023/12/13 01:55:06;;;;;;;2.3;1.8;;;;;;;5.65;100;925.07;;;;
2023/12/13 01:57:36;;;;;;;3;2.1;;;;;;;5.61;100;924.9672;;;;
2023/12/13 02:00:07;;;;;;;4.8;2.5;;;;;;;5.58;100;925.0291;;;;
2023/12/13 02:02:40;;;;;;;3.6;2.6;;;;;;;5.59;100;925.048;;;;
2023/12/13 02:05:14;;;;;;;2.8;2.4;;;;;;;5.58;100;924.9517;;;;
2023/12/13 02:07:48;;;;;;;3.3;2.6;;;;;;;5.51;100;924.9805;;;;
2023/12/13 02:10:15;;;;;;;3.3;2.4;;;;;;;5.46;100;924.8309;;;;
2023/12/13 02:12:41;;;;;;;3.5;2.8;;;;;;;5.53;100;924.7974;;;;
2023/12/13 02:15:16;;;;;;;3.9;2.5;;;;;;;5.57;100;924.8055;;;;
2023/12/13 02:17:42;;;;;;;3.1;2.5;;;;;;;5.53;100;924.7311;;;;
2023/12/13 02:20:08;;;;;;;2.8;2.5;;;;;;;5.5;100;924.7696;;;;
2023/12/13 02:22:50;;;;;;;4.5;2.9;;;;;;;5.5;100;924.731;;;;
2023/12/13 02:25:20;;;;;;;4.1;2.8;;;;;;;5.52;100;924.8628;;;;
2023/12/13 02:27:49;;;;;;;3.2;2.4;;;;;;;5.54;100;924.8109;;;;
2023/12/13 02:30:29;;;;;;;3.5;2.3;;;;;;;5.47;100;924.8428;;;;
2023/12/13 02:32:54;;;;;;;4.3;2.5;;;;;;;5.46;100;924.853;;;;
2023/12/13 02:35:25;;;;;;;3.4;2.4;;;;;;;5.55;100;924.8086;;;;
2023/12/13 02:37:51;;;;;;;3.8;2.7;;;;;;;5.54;100;924.8883;;;;
2023/12/13 02:40:19;;;;;;;5.1;3;;;;;;;5.58;100;924.8814;;;;
2023/12/13 02:42:44;;;;;;;4.5;2.5;;;;;;;5.44;100;924.7621;;;;
2023/12/13 02:45:17;;;;;;;3.8;2.7;;;;;;;5.44;100;924.7416;;;;
2023/12/13 02:47:43;;;;;;;3.7;2.8;;;;;;;5.45;100;924.868;;;;
2023/12/13 02:50:07;;;;;;;4.1;2.7;;;;;;;5.41;100;924.8053;;;;
2023/12/13 02:52:38;;;;;;;2.6;2.2;;;;;;;5.41;100;924.7776;;;;
2023/12/13 02:55:13;;;;;;;2.2;2;;;;;;;5.33;100;924.7745;;;;
2023/12/13 02:57:43;;;;;;;2.4;2.1;;;;;;;5.42;100;924.9293;;;;
2023/12/13 03:00:08;;;;;;;3.2;2.5;;;;;;;5.53;100;924.9119;;;;
2023/12/13 03:02:33;;;;;;;1.6;1.5;;;;;;;5.5;100;924.802;;;;
2023/12/13 03:05:00;;;;;;;2;1.9;;;;;;;5.36;100;924.721;;;;
2023/12/13 03:07:25;;;;;;;1.7;1.5;;;;;;;5.4;100;924.6677;;;;
2023/12/13 03:09:55;;;;;;;2.1;1.9;;;;;;;5.4;100;924.7473;;;;
2023/12/13 03:12:22;;;;;;;3.3;2.3;;;;;;;5.49;100;924.7672;;;;
2023/12/13 03:14:52;;;;;;;3.4;2.5;;;;;;;5.45;100;924.7637;;;;
2023/12/13 03:17:18;;;;;;;3.2;2.3;;;;;;;5.45;100;924.6683;;;;
2023/12/13 03:19:45;;;;;;;4;2.6;;;;;;;5.43;100;924.5711;;;;
2023/12/13 03:22:10;;;;;;;3.1;2.5;;;;;;;5.43;100;924.4708;;;;
2023/12/13 03:24:39;;;;;;;4.4;2.6;;;;;;;5.39;100;924.4379;;;;
2023/12/13 03:27:08;;;;;;;4.1;2.9;;;;;;;5.43;100;924.6169;;;;
2023/12/13 03:29:37;;;;;;;5.3;3.5;;;;;;;5.37;100;924.6777;;;;
2023/12/13 03:32:02;;;;;;;6.6;3.7;;;;;;;5.32;100;924.6521;;;;
2023/12/13 03:34:27;;;;;;;9;4.5;;;;;;;5.37;100;924.6516;;;;
2023/12/13 03:36:53;;;;;;;6.6;3.9;;;;;;;5.42;100;924.6602;;;;
2023/12/13 03:39:19;;;;;;;5.7;3.8;;;;;;;5.4;100;924.6937;;;;
2023/12/13 03:41:44;;;;;;;8.1;4.5;;;;;;;5.38;100;924.5428;;;;
2023/12/13 03:44:12;;;;;;;5.9;4;;;;;;;5.35;100;924.5212;;;;
2023/12/13 03:46:37;;;;;;;6.8;4.2;;;;;;;5.33;100;924.6294;;;;
2023/12/13 03:49:07;;;;;;;6.5;4.1;;;;;;;5.28;100;924.6188;;;;
2023/12/13 03:51:32;;;;;;;6.6;4.3;;;;;;;5.31;100;924.5156;;;;
2023/12/13 03:54:01;;;;;;;7.2;4.3;;;;;;;5.38;100;924.4797;;;;
2023/12/13 03:56:31;;;;;;;5.1;3.4;;;;;;;5.31;100;924.4169;;;;
2023/12/13 03:59:01;;;;;;;3.7;2.9;;;;;;;5.28;100;924.4096;;;;
2023/12/13 04:02:41;;;;;;;3.3;2.7;;;;;;;5.23;100;924.3872;;;;
2023/12/13 04:05:11;;;;;;;3.4;3.1;;;;;;;5.26;100;924.2438;;;;
2023/12/13 04:07:41;;;;;;;3.9;2.8;;;;;;;5.27;100;924.2817;;;;
2023/12/13 04:10:15;;;;;;;3.7;2.5;;;;;;;5.22;100;924.3122;;;;
2023/12/13 04:12:41;;;;;;;3.2;2.9;;;;;;;5.24;100;924.3281;;;;
2023/12/13 04:15:16;;;;;;;4.8;3.2;;;;;;;5.32;100;924.2758;;;;
2023/12/13 04:17:45;;;;;;;3.9;3.3;;;;;;;5.43;100;924.2933;;;;
2023/12/13 04:20:11;;;;;;;4.1;2.9;;;;;;;5.37;100;924.3139;;;;
2023/12/13 04:22:41;;;;;;;6;4.1;;;;;;;5.32;100;924.3049;;;;
2023/12/13 04:25:06;;;;;;;7.9;4.6;;;;;;;5.34;100;924.3066;;;;
2023/12/13 04:27:32;;;;;;;7;4.8;;;;;;;5.35;100;924.212;;;;
2023/12/13 04:29:57;;;;;;;7.5;4.4;;;;;;;5.35;100;924.2601;;;;
2023/12/13 04:32:22;;;;;;;5.4;4.1;;;;;;;5.3;100;924.3466;;;;
2023/12/13 04:34:49;;;;;;;5.8;4.5;;;;;;;5.31;100;924.2922;;;;
2023/12/13 04:37:15;;;;;;;7.3;6.6;;;;;;;5.37;100;924.2894;;;;
2023/12/13 04:39:44;;;;;;;10.4;9.1;;;;;;;5.31;100;924.2733;;;;
2023/12/13 04:42:09;;;;;;;7.3;6.5;;;;;;;5.32;100;924.2213;;;;
2023/12/13 04:44:35;;;;;;;6.7;5.3;;;;;;;5.32;100;924.2797;;;;
2023/12/13 04:47:01;;;;;;;4.9;4.4;;;;;;;5.29;100;924.2108;;;;
2023/12/13 04:49:27;;;;;;;5.6;4.8;;;;;;;5.28;100;924.2328;;;;
2023/12/13 04:51:52;;;;;;;6;5;;;;;;;5.3;100;924.2338;;;;
2023/12/13 04:54:21;;;;;;;6.5;4.5;;;;;;;5.25;100;924.1956;;;;
2023/12/13 04:56:46;;;;;;;5.5;4.1;;;;;;;5.25;100;924.1135;;;;
2023/12/13 04:59:13;;;;;;;5.8;4;;;;;;;5.27;100;924.1373;;;;
2023/12/13 05:01:56;;;;;;;3.8;3.2;;;;;;;5.22;100;924.118;;;;
2023/12/13 05:04:27;;;;;;;5;3.6;;;;;;;5.2;100;924.0403;;;;
2023/12/13 05:06:59;;;;;;;5.8;3.7;;;;;;;5.19;100;924.0577;;;;
2023/12/13 05:09:26;;;;;;;5.4;4.1;;;;;;;5.17;100;924.0883;;;;
2023/12/13 05:11:50;;;;;;;5.3;4.1;;;;;;;5.17;100;924.0993;;;;
2023/12/13 05:14:16;;;;;;;5.5;3.7;;;;;;;5.2;100;924.1319;;;;
2023/12/13 05:16:47;;;;;;;4.7;3.6;;;;;;;5.25;100;924.0717;;;;
2023/12/13 05:19:19;;;;;;;5.8;4.3;;;;;;;5.23;100;923.9849;;;;
2023/12/13 05:21:47;;;;;;;7.6;4.4;;;;;;;5.23;100;923.8917;;;;
2023/12/13 05:24:15;;;;;;;6.3;4.2;;;;;;;5.18;100;923.9455;;;;
2023/12/13 05:26:41;;;;;;;6.5;4.5;;;;;;;5.21;100;923.838;;;;
2023/12/13 05:29:16;;;;;;;6.8;4.7;;;;;;;5.2;100;923.802;;;;
2023/12/13 05:31:42;;;;;;;9.9;5.9;;;;;;;5.24;100;923.8389;;;;
2023/12/13 05:34:07;;;;;;;8;6;;;;;;;5.25;100;923.8759;;;;
2023/12/13 05:36:37;;;;;;;7.6;5.9;;;;;;;5.26;100;923.7869;;;;
2023/12/13 05:39:02;;;;;;;10;7;;;;;;;5.18;100;923.8406;;;;
2023/12/13 05:41:36;;;;;;;10.2;7;;;;;;;5.21;100;923.8142;;;;
2023/12/13 05:44:03;;;;;;;10.6;6.6;;;;;;;5.18;100;923.8555;;;;
2023/12/13 05:46:33;;;;;;;10.9;6.8;;;;;;;5.13;100;923.7772;;;;
2023/12/13 05:48:55;;;;;;;11;6.7;;;;;;;5.18;100;923.7728;;;;
2023/12/13 05:51:23;;;;;;;7.9;5.7;;;;;;;5.19;100;923.9385;;;;
2023/12/13 05:53:48;;;;;;;5.8;4;;;;;;;5.3;100;923.7737;;;;
2023/12/13 05:56:19;;;;;;;5.1;3.5;;;;;;;5.35;100;923.759;;;;
2023/12/13 05:58:47;;;;;;;4;3.5;;;;;;;5.28;100;923.7467;;;;
2023/12/13 06:01:19;;;;;;;5.8;3.6;;;;;;;5.25;100;923.8642;;;;
2023/12/13 06:03:45;;;;;;;4.3;3.4;;;;;;;5.29;100;923.7784;;;;
2023/12/13 06:06:10;;;;;;;3.4;2.9;;;;;;;5.25;100;923.6591;;;;
2023/12/13 06:08:35;;;;;;;3.2;2.8;;;;;;;5.27;100;923.5787;;;;
2023/12/13 06:11:03;;;;;;;3.3;2.7;;;;;;;5.32;100;923.6255;;;;
2023/12/13 06:13:28;;;;;;;3.5;2.5;;;;;;;5.31;100;923.657;;;;
2023/12/13 06:15:58;;;;;;;5.1;3.2;;;;;;;5.26;100;923.5383;;;;
2023/12/13 06:18:34;;;;;;;4.7;3.8;;;;;;;5.25;100;923.5359;;;;
2023/12/13 06:21:05;;;;;;;4.6;3.4;;;;;;;5.33;100;923.6113;;;;
2023/12/13 06:23:30;;;;;;;5.1;4.1;;;;;;;5.31;100;923.608;;;;
2023/12/13 06:26:00;;;;;;;6.4;5.4;;;;;;;5.23;100;923.5919;;;;
2023/12/13 06:28:29;;;;;;;7.2;5.3;;;;;;;5.17;100;923.5644;;;;
2023/12/13 06:30:54;;;;;;;7.9;5.4;;;;;;;5.21;100;923.5389;;;;
2023/12/13 06:33:21;;;;;;;6.6;4.7;;;;;;;5.3;100;923.5779;;;;
2023/12/13 06:35:46;;;;;;;8.6;6.1;;;;;;;5.37;100;923.6021;;;;
2023/12/13 06:38:16;;;;;;;7.7;5.1;;;;;;;5.26;100;923.611;;;;
2023/12/13 06:40:44;;;;;;;6.2;4.9;;;;;;;5.17;100;923.584;;;;
2023/12/13 06:43:16;;;;;;;10.4;7;;;;;;;5.18;100;923.4745;;;;
2023/12/13 06:45:43;;;;;;;10.2;6.6;;;;;;;5.26;100;923.4358;;;;
2023/12/13 06:48:11;;;;;;;7.1;5.5;;;;;;;5.21;100;923.3724;;;;
2023/12/13 06:50:36;;;;;;;12.4;7;;;;;;;5.21;100;923.4789;;;;
2023/12/13 06:53:04;;;;;;;13.8;7.3;;;;;;;5.31;100;923.4281;;;;
2023/12/13 06:55:28;;;;;;;15.3;7.8;;;;;;;5.23;100;923.4348;;;;
2023/12/13 06:57:57;;;;;;;17;7.6;;;;;;;5.23;100;923.4545;;;;
2023/12/13 07:00:26;;;;;;;17.2;8.3;;;;;;;5.21;100;923.3629;;;;
2023/12/13 07:02:50;;;;;;;13.8;8;;;;;;;5.2;100;923.3942;;;;
2023/12/13 07:05:19;;;;;;;15.5;9.8;;;;;;;5.21;100;923.3771;;;;
2023/12/13 07:07:48;;;;;;;22.4;16.8;;;;;;;5.15;100;923.3323;;;;
2023/12/13 07:10:13;;;;;;;21.1;16.6;;;;;;;5.14;100;923.2762;;;;
2023/12/13 07:12:41;;;;;;;19;14.1;;;;;;;5.13;100;923.18;;;;
2023/12/13 07:15:06;;;;;;;12.8;8.6;;;;;;;5.21;100;923.1428;;;;
2023/12/13 07:17:35;;;;;;;13.5;7.1;;;;;;;5.18;100;923.0383;;;;
2023/12/13 07:20:01;;;;;;;11.2;6.3;;;;;;;5.11;100;923.0837;;;;
2023/12/13 07:22:37;;;;;;;9.1;6.4;;;;;;;5.16;100;923.0815;;;;
2023/12/13 07:25:06;;;;;;;11.4;8.5;;;;;;;5.24;100;923.1106;;;;
2023/12/13 07:27:29;;;;;;;15.8;10.8;;;;;;;5.23;100;923.094;;;;
2023/12/13 07:29:57;;;;;;;12.6;10.8;;;;;;;5.14;100;923.0421;;;;
2023/12/13 07:32:22;;;;;;;14.9;9;;;;;;;5.13;100;923.1099;;;;
2023/12/13 07:34:49;;;;;;;12.6;8.6;;;;;;;5.16;100;923.0334;;;;
2023/12/13 07:37:14;;;;;;;10.6;8.1;;;;;;;5.27;100;923.0089;;;;
2023/12/13 07:39:42;;;;;;;10.8;8.4;;;;;;;5.22;100;923.03;;;;
2023/12/13 07:42:14;;;;;;;10.4;9.4;;;;;;;5.24;100;922.9788;;;;
2023/12/13 07:44:45;;;;;;;7.8;6;;;;;;;5.16;100;922.9885;;;;
2023/12/13 07:47:16;;;;;;;8.2;5.5;;;;;;;5.22;100;923.0497;;;;
2023/12/13 07:49:45;;;;;;;9.5;7.1;;;;;;;5.22;100;923.1184;;;;
2023/12/13 07:52:12;;;;;;;11.3;10.1;;;;;;;5.17;100;923.1163;;;;
2023/12/13 07:54:40;;;;;;;7.5;6.7;;;;;;;5.18;100;923.0824;;;;
2023/12/13 07:57:05;;;;;;;3.8;3.3;;;;;;;5.3;100;923.0525;;;;
2023/12/13 07:59:36;;;;;;;9.3;8.5;;;;;;;5.33;100;923.0385;;;;
2023/12/13 08:02:04;;;;;;;14.5;13.1;;;;;;;5.37;100;923.0536;;;;
2023/12/13 08:04:27;;;;;;;7.6;6.5;;;;;;;5.31;100;922.9808;;;;
2023/12/13 08:06:58;;;;;;;4.9;4.4;;;;;;;5.38;100;922.9628;;;;
2023/12/13 08:09:23;;;;;;;4.9;3.8;;;;;;;5.33;100;922.9358;;;;
2023/12/13 08:11:48;;;;;;;4.1;3.5;;;;;;;5.34;100;922.9099;;;;
2023/12/13 08:14:13;;;;;;;4.7;4.3;;;;;;;5.29;100;922.9807;;;;
2023/12/13 08:16:38;;;;;;;4.6;3.7;;;;;;;5.32;100;923.0201;;;;
2023/12/13 08:19:11;;;;;;;2.9;2.6;;;;;;;5.33;100;922.9445;;;;
2023/12/13 08:21:40;;;;;;;2.8;2.2;;;;;;;5.33;100;922.9816;;;;
2023/12/13 08:24:02;;;;;;;2.2;1.9;;;;;;;5.55;100;922.9196;;;;
2023/12/13 08:26:30;;;;;;;2.7;1.9;;;;;;;5.45;100;922.856;;;;
2023/12/13 08:28:55;;;;;;;2.6;2.3;;;;;;;5.49;100;922.8443;;;;
2023/12/13 08:31:23;;;;;;;7.2;5;;;;;;;5.56;100;922.8903;;;;
2023/12/13 08:33:50;;;;;;;8.4;5.2;;;;;;;5.52;100;922.8286;;;;
2023/12/13 08:36:15;;;;;;;8.2;5.9;;;;;;;5.49;100;922.8317;;;;
2023/12/13 08:38:42;;;;;;;8.1;5.2;;;;;;;5.5;100;922.7805;;;;
2023/12/13 08:41:19;;;;;;;8.9;5.1;;;;;;;5.46;100;922.7432;;;;
2023/12/13 08:43:44;;;;;;;5.6;4.4;;;;;;;5.44;100;922.7708;;;;
2023/12/13 08:46:15;;;;;;;6.2;5.4;;;;;;;5.48;100;922.733;;;;
2023/12/13 08:48:44;;;;;;;8.7;6.6;;;;;;;5.51;100;922.8405;;;;
2023/12/13 08:51:08;;;;;;;10.6;7.9;;;;;;;5.58;100;922.8312;;;;
2023/12/13 08:53:36;;;;;;;14.5;10.6;;;;;;;5.56;100;922.8098;;;;
2023/12/13 08:56:08;;;;;;;20.4;13.8;;;;;;;5.59;100;922.7562;;;;
2023/12/13 08:58:32;;;;;;;17.5;13.2;;;;;;;5.64;100;922.7692;;;;
2023/12/13 09:00:58;;;;;;;12.6;10.7;;;;;;;5.7;100;922.7615;;;;
2023/12/13 09:03:24;;;;;;;9.7;8.1;;;;;;;5.72;100;922.7291;;;;
2023/12/13 09:05:55;;;;;;;9.6;8.6;;;;;;;5.74;100;922.7;;;;
2023/12/13 09:08:23;;;;;;;6.2;5.6;;;;;;;5.8;100;922.6859;;;;
2023/12/13 09:10:48;;;;;;;5.2;4;;;;;;;5.9;100;922.5263;;;;
2023/12/13 09:13:18;;;;;;;4.4;4;;;;;;;5.86;100;922.627;;;;
2023/12/13 09:15:44;;;;;;;6.5;5.9;;;;;;;5.84;100;922.5591;;;;
2023/12/13 09:18:09;;;;;;;5;4.5;;;;;;;5.9;100;922.5231;;;;
2023/12/13 09:20:37;;;;;;;6.5;4.3;;;;;;;5.89;100;922.537;;;;
2023/12/13 09:23:03;;;;;;;6.9;5.3;;;;;;;5.92;100;922.4608;;;;
2023/12/13 09:25:31;;;;;;;9;6.4;;;;;;;6;100;922.6094;;;;
2023/12/13 09:27:57;;;;;;;8.6;7;;;;;;;6.01;100;922.6278;;;;
2023/12/13 09:30:27;;;;;;;8.4;6.4;;;;;;;6.06;100;922.6082;;;;
2023/12/13 09:32:56;;;;;;;7.4;5.6;;;;;;;6.01;100;922.6121;;;;
2023/12/13 09:35:21;;;;;;;6.2;5.1;;;;;;;6;100;922.6994;;;;
2023/12/13 09:37:51;;;;;;;5.2;4.4;;;;;;;6.02;100;922.7527;;;;
2023/12/13 09:40:17;;;;;;;4.6;3.6;;;;;;;6.18;100;922.7361;;;;
2023/12/13 09:42:40;;;;;;;5;2.9;;;;;;;6.28;100;922.7048;;;;
2023/12/13 09:45:14;;;;;;;4.4;3;;;;;;;6.09;100;922.7164;;;;
2023/12/13 09:47:40;;;;;;;3;2.7;;;;;;;6.06;100;922.7914;;;;
2023/12/13 09:50:05;;;;;;;6.2;4;;;;;;;6.1;100;922.8356;;;;
2023/12/13 09:52:35;;;;;;;6.6;5.1;;;;;;;6.1;100;922.8309;;;;
2023/12/13 09:55:01;;;;;;;9;5.7;;;;;;;6.12;100;922.7148;;;;
2023/12/13 09:57:33;;;;;;;6.9;5.3;;;;;;;6.16;100;922.6548;;;;
2023/12/13 10:00:01;;;;;;;7.1;5;;;;;;;6.19;100;922.6382;;;;
2023/12/13 10:02:26;;;;;;;7.1;5.4;;;;;;;6.22;100;922.6796;;;;
2023/12/13 10:04:52;;;;;;;10.8;6;;;;;;;6.29;100;922.6954;;;;
2023/12/13 10:07:17;;;;;;;11.7;7.5;;;;;;;6.33;100;922.6741;;;;
2023/12/13 10:09:45;;;;;;;13.2;8.4;;;;;;;6.31;100;922.6844;;;;
2023/12/13 10:12:12;;;;;;;12.5;7.7;;;;;;;6.32;100;922.6994;;;;
2023/12/13 10:14:39;;;;;;;11.8;6.7;;;;;;;6.38;100;922.6345;;;;
2023/12/13 10:17:04;;;;;;;11;6.6;;;;;;;6.43;100;922.6158;;;;
2023/12/13 10:19:34;;;;;;;9.3;5.9;;;;;;;6.44;100;922.6411;;;;
2023/12/13 10:21:58;;;;;;;8;4.9;;;;;;;6.48;100;922.5707;;;;
2023/12/13 10:24:25;;;;;;;6.9;4.4;;;;;;;6.53;100;922.5493;;;;
2023/12/13 10:26:50;;;;;;;5.4;3.8;;;;;;;6.58;100;922.5073;;;;
2023/12/13 10:29:18;;;;;;;6.4;4.1;;;;;;;6.59;100;922.4939;;;;
2023/12/13 10:31:43;;;;;;;5.8;3.7;;;;;;;6.6;100;922.4598;;;;
2023/12/13 10:34:10;;;;;;;5.8;3.6;;;;;;;6.69;100;922.5406;;;;
2023/12/13 10:36:42;;;;;;;4.8;3.6;;;;;;;6.68;100;922.4869;;;;
2023/12/13 10:39:12;;;;;;;5.3;4;;;;;;;6.66;100;922.4078;;;;
2023/12/13 10:41:37;;;;;;;5;3.7;;;;;;;6.66;100;922.3953;;;;
2023/12/13 10:44:04;;;;;;;4.5;3.4;;;;;;;6.66;100;922.3295;;;;
2023/12/13 10:46:29;;;;;;;7.2;3.7;;;;;;;6.65;100;922.347;;;;
2023/12/13 10:48:56;;;;;;;4.8;3.5;;;;;;;6.67;100;922.267;;;;
2023/12/13 10:51:21;;;;;;;5;2.9;;;;;;;6.69;100;922.2402;;;;
2023/12/13 10:53:52;;;;;;;5.3;3.3;;;;;;;6.69;100;922.2639;;;;
2023/12/13 10:56:25;;;;;;;4.1;3.2;;;;;;;6.69;100;922.2963;;;;
2023/12/13 10:58:46;;;;;;;4.7;3.5;;;;;;;6.66;100;922.2394;;;;
2023/12/13 11:01:17;;;;;;;4.4;3.3;;;;;;;6.64;100;922.2766;;;;
2023/12/13 11:03:44;;;;;;;5.5;3.7;;;;;;;6.7;100;922.2465;;;;
2023/12/13 11:06:09;;;;;;;4.1;3.1;;;;;;;6.67;100;922.1334;;;;
2023/12/13 11:08:34;;;;;;;5.4;3.7;;;;;;;6.67;100;922.1808;;;;
2023/12/13 11:11:10;;;;;;;4.9;3.9;;;;;;;6.67;100;922.1904;;;;
2023/12/13 11:13:34;;;;;;;5.1;4;;;;;;;6.62;100;922.0884;;;;
2023/12/13 11:16:02;;;;;;;10;5.5;;;;;;;6.68;100;922.105;;;;
2023/12/13 11:18:27;;;;;;;10;6.2;;;;;;;6.61;100;922.0396;;;;
2023/12/13 11:20:58;;;;;;;11.3;6.8;;;;;;;6.62;100;922.0663;;;;
2023/12/13 11:23:22;;;;;;;10.5;5.9;;;;;;;6.61;100;922.1088;;;;
2023/12/13 11:25:47;;;;;;;9.9;6.7;;;;;;;6.81;100;922.0898;;;;
2023/12/13 11:28:15;;;;;;;12.4;7.2;;;;;;;6.65;100;922.0947;;;;
2023/12/13 11:30:42;;;;;;;13.4;8.7;;;;;;;6.62;100;922.0648;;;;
2023/12/13 11:33:24;;;;;;;22.9;13.8;;;;;;;6.66;100;922.037;;;;
2023/12/13 11:35:59;;;;;;;29.7;18.9;;;;;;;6.68;100;922.0472;;;;
2023/12/13 11:38:26;;;;;;;27.5;17.4;;;;;;;6.73;100;922.1286;;;;
2023/12/13 11:40:58;;;;;;;24.1;14.9;;;;;;;6.63;100;922.1248;;;;
2023/12/13 11:43:27;;;;;;;17.9;11.9;;;;;;;6.67;100;922.1271;;;;
2023/12/13 11:45:58;;;;;;;17.5;11.4;;;;;;;6.66;100;922.1888;;;;
2023/12/13 11:48:23;;;;;;;15.9;11.1;;;;;;;6.69;100;922.1627;;;;
2023/12/13 11:50:53;;;;;;;17.2;11;;;;;;;6.72;100;922.1674;;;;
2023/12/13 11:53:23;;;;;;;18.2;11.5;;;;;;;6.8;100;922.1426;;;;
2023/12/13 11:55:48;;;;;;;11.4;8.5;;;;;;;6.82;100;922.0479;;;;
2023/12/13 11:58:18;;;;;;;11.4;8.3;;;;;;;6.81;100;922.0906;;;;
2023/12/13 12:00:51;;;;;;;13.6;9.6;;;;;;;6.83;100;922.1119;;;;
2023/12/13 12:03:15;;;;;;;15.1;9.3;;;;;;;6.88;100;922.0477;;;;
2023/12/13 12:05:44;;;;;;;14;9.5;;;;;;;6.91;100;921.9725;;;;
2023/12/13 12:08:14;;;;;;;13;8.7;;;;;;;6.9;100;921.9258;;;;
2023/12/13 12:10:40;;;;;;;11.7;7.7;;;;;;;6.88;100;921.9156;;;;
2023/12/13 12:13:08;;;;;;;10.8;7.7;;;;;;;6.87;100;921.8326;;;;
2023/12/13 12:15:33;;;;;;;10.8;7.3;;;;;;;6.85;100;921.8904;;;;
2023/12/13 12:18:05;;;;;;;10.1;7.5;;;;;;;6.83;100;921.7869;;;;
2023/12/13 12:20:30;;;;;;;9.9;7.6;;;;;;;6.81;100;921.7687;;;;
2023/12/13 12:23:01;;;;;;;17.2;11.2;;;;;;;6.88;100;921.7573;;;;
2023/12/13 12:25:29;;;;;;;12.3;9.3;;;;;;;6.86;100;921.7598;;;;
2023/12/13 12:27:53;;;;;;;13.3;9.6;;;;;;;6.82;100;921.6373;;;;
2023/12/13 12:30:19;;;;;;;17.8;12.5;;;;;;;6.81;100;921.7455;;;;
2023/12/13 12:32:47;;;;;;;22.5;14.1;;;;;;;6.79;100;921.7012;;;;
2023/12/13 12:35:12;;;;;;;22;13.6;;;;;;;6.79;100;921.8231;;;;
2023/12/13 12:37:44;;;;;;;33.6;17.9;;;;;;;6.78;100;921.7906;;;;
2023/12/13 12:40:17;;;;;;;43;24.9;;;;;;;6.76;100;921.7045;;;;
2023/12/13 12:42:45;;;;;;;51.5;29;;;;;;;6.73;100;921.5836;;;;
2023/12/13 12:45:07;;;;;;;54.1;31.7;;;;;;;6.74;100;921.5408;;;;
2023/12/13 12:47:36;;;;;;;37.8;22.6;;;;;;;6.72;100;921.5647;;;;
2023/12/13 12:50:02;;;;;;;26.3;15.2;;;;;;;6.79;100;921.5526;;;;
2023/12/13 12:52:30;;;;;;;17.9;11.1;;;;;;;6.76;100;921.5812;;;;
2023/12/13 12:54:55;;;;;;;13.2;8.4;;;;;;;6.69;100;921.6351;;;;
2023/12/13 12:57:25;;;;;;;10.9;7;;;;;;;6.75;100;921.5455;;;;
2023/12/13 12:59:53;;;;;;;6.2;4.3;;;;;;;6.77;100;921.6167;;;;
2023/12/13 13:02:19;;;;;;;4.4;3.3;;;;;;;6.81;100;921.6367;;;;
2023/12/13 13:04:53;;;;;;;3.4;2.6;;;;;;;6.9;100;921.6292;;;;
2023/12/13 13:07:18;;;;;;;4.7;3.2;;;;;;;6.86;100;921.6633;;;;
2023/12/13 13:09:43;;;;;;;3.8;2.3;;;;;;;6.9;100;921.6703;;;;
2023/12/13 13:12:12;;;;;;;3.3;2.4;;;;;;;6.92;100;921.5815;;;;
2023/12/13 13:14:39;;;;;;;4.2;2.2;;;;;;;6.9;100;921.6838;;;;
2023/12/13 13:17:06;;;;;;;3.5;2.7;;;;;;;6.86;100;921.7622;;;;
2023/12/13 13:19:33;;;;;;;3.4;2.6;;;;;;;6.86;100;921.7307;;;;
2023/12/13 13:22:01;;;;;;;4.5;3.3;;;;;;;6.88;100;921.7123;;;;
2023/12/13 13:24:26;;;;;;;5.1;3.2;;;;;;;6.9;100;921.7589;;;;
2023/12/13 13:26:55;;;;;;;4.4;3.3;;;;;;;6.87;100;921.6721;;;;
2023/12/13 13:29:25;;;;;;;4.5;3.1;;;;;;;6.88;100;921.6545;;;;
2023/12/13 13:31:50;;;;;;;5.5;3.3;;;;;;;6.89;100;921.6656;;;;
2023/12/13 13:34:16;;;;;;;5.6;3.7;;;;;;;6.87;100;921.7258;;;;
2023/12/13 13:36:41;;;;;;;6.9;4.4;;;;;;;6.83;100;921.7433;;;;
2023/12/13 13:39:13;;;;;;;7;4.4;;;;;;;6.84;100;921.7093;;;;
2023/12/13 13:41:38;;;;;;;6.1;3.9;;;;;;;6.81;100;921.6928;;;;
2023/12/13 13:44:02;;;;;;;9.5;6.3;;;;;;;6.83;100;921.6951;;;;
2023/12/13 13:46:27;;;;;;;17.4;10.9;;;;;;;6.83;100;921.7378;;;;
2023/12/13 13:48:57;;;;;;;19.3;12.1;;;;;;;6.78;100;921.6768;;;;
2023/12/13 13:51:24;;;;;;;15.2;10.9;;;;;;;6.76;100;921.6618;;;;
2023/12/13 13:53:50;;;;;;;15.6;11;;;;;;;6.7;100;921.6628;;;;
2023/12/13 13:56:15;;;;;;;15.3;10.3;;;;;;;6.66;100;921.7333;;;;
2023/12/13 13:58:41;;;;;;;15;10.4;;;;;;;6.65;100;921.6756;;;;
2023/12/13 14:01:08;;;;;;;24.9;15.6;;;;;;;6.62;100;921.7769;;;;
2023/12/13 14:03:34;;;;;;;22.7;14;;;;;;;6.6;100;921.8178;;;;
2023/12/13 14:06:00;;;;;;;24.7;16.3;;;;;;;6.58;100;921.8345;;;;
2023/12/13 14:08:30;;;;;;;27.8;18;;;;;;;6.59;100;921.8597;;;;
2023/12/13 14:11:03;;;;;;;32.2;18.9;;;;;;;6.59;100;921.878;;;;
2023/12/13 14:13:30;;;;;;;26.9;16.6;;;;;;;6.56;100;921.8843;;;;
2023/12/13 14:15:55;;;;;;;24.2;14.8;;;;;;;6.52;100;921.8765;;;;
2023/12/13 14:18:23;;;;;;;18.6;12.2;;;;;;;6.5;100;921.8844;;;;
2023/12/13 14:20:48;;;;;;;20.9;13.3;;;;;;;6.52;100;921.9224;;;;
2023/12/13 14:23:15;;;;;;;16.2;11.3;;;;;;;6.53;100;921.98;;;;
2023/12/13 14:25:40;;;;;;;17.4;11.5;;;;;;;6.48;100;922.0189;;;;
2023/12/13 14:28:57;;;;;;;21.3;13.7;;;;;;;6.49;100;922.1035;;;;
2023/12/13 14:31:23;;;;;;;17.4;11.8;;;;;;;6.47;100;922.0189;;;;
2023/12/13 14:33:47;;;;;;;26.1;15.3;;;;;;;6.49;100;922.0513;;;;
2023/12/13 14:36:14;;;;;;;25.3;14.6;;;;;;;6.47;100;922.1525;;;;
2023/12/13 14:38:41;;;;;;;27.2;15.5;;;;;;;6.41;100;922.1834;;;;
2023/12/13 14:41:08;;;;;;;23.8;13.9;;;;;;;6.4;100;922.1981;;;;
2023/12/13 14:43:38;;;;;;;25;15.9;;;;;;;6.43;100;922.2308;;;;
2023/12/13 14:46:04;;;;;;;23.2;15.2;;;;;;;6.4;100;922.2076;;;;
2023/12/13 14:48:28;;;;;;;26.3;17.1;;;;;;;6.42;100;922.2285;;;;
2023/12/13 14:50:56;;;;;;;24.7;15.8;;;;;;;6.39;100;922.2441;;;;
2023/12/13 14:53:22;;;;;;;20.5;11.4;;;;;;;6.42;100;922.3067;;;;
2023/12/13 14:55:51;;;;;;;14.5;8.9;;;;;;;6.49;100;922.2418;;;;
2023/12/13 14:58:17;;;;;;;14.5;9.6;;;;;;;6.38;100;922.3547;;;;
2023/12/13 15:00:49;;;;;;;20.7;14.3;;;;;;;6.32;100;922.3469;;;;
2023/12/13 15:03:17;;;;;;;27.3;17.5;;;;;;;6.32;100;922.3903;;;;
2023/12/13 15:05:41;;;;;;;27.3;17.5;;;;;;;6.31;100;922.3784;;;;
2023/12/13 15:08:08;;;;;;;26.9;18;;;;;;;6.35;100;922.4645;;;;
2023/12/13 15:10:33;;;;;;;25.7;17;;;;;;;6.31;100;922.5231;;;;
2023/12/13 15:13:01;;;;;;;26.5;17.8;;;;;;;6.29;100;922.4504;;;;
2023/12/13 15:15:26;;;;;;;28.2;18.4;;;;;;;6.27;100;922.4402;;;;
2023/12/13 15:17:57;;;;;;;27.7;17.9;;;;;;;6.25;100;922.4678;;;;
2023/12/13 15:20:25;;;;;;;28.6;17.9;;;;;;;6.22;100;922.4211;;;;
2023/12/13 15:22:54;;;;;;;25.4;17.8;;;;;;;6.25;100;922.4077;;;;
2023/12/13 15:25:20;;;;;;;22.1;16.7;;;;;;;6.27;100;922.4536;;;;
2023/12/13 15:27:45;;;;;;;23.5;17.8;;;;;;;6.19;100;922.4675;;;;
2023/12/13 15:30:14;;;;;;;28.5;18.3;;;;;;;6.2;100;922.4406;;;;
2023/12/13 15:32:40;;;;;;;24.1;17.8;;;;;;;6.17;100;922.4771;;;;
2023/12/13 15:35:08;;;;;;;27.4;17.8;;;;;;;6.18;100;922.4889;;;;
2023/12/13 15:37:36;;;;;;;29.7;18.6;;;;;;;6.18;100;922.5307;;;;
2023/12/13 15:40:04;;;;;;;29.5;20.4;;;;;;;6.14;100;922.5133;;;;
2023/12/13 15:42:27;;;;;;;30;19.5;;;;;;;6.12;100;922.4856;;;;
2023/12/13 15:44:52;;;;;;;22;16.3;;;;;;;6.06;100;922.5172;;;;